Dupuyer, Montana
Current Conditions -  °F | °C
As of 4:56 AM on Saturday 25 Oct 2014 (Local Time) from KCTB Reporting Station
Broken Clouds Broken Clouds  
Wind Chill: 37°   Ceiling: 5000
Heat Index: 42°   Visibility: 10mi
Dew Point: 32°   Wind: 8mph
Humidity: 67%   Direction: 60°ENE
Pressure: 30.01"   Gusts: NA
Location:  48.19°N, 112.5°W
Report Text: KCTB 251056Z AUTO 06007KT 10SM BKN050 06/00 A3001 RMK AO2 SLP164 T00560000
Loading
Personal Weather Stations






























Interactive Weather Map
Tropical Storm Tracking
New forecast layout! Learn more

10-Day Weather Forecast

Advertisements
Track Severe Weather on mobile